Latest Weather Observations for Gabo Island

IDV60801

Issued at 12:12 pm EST Wednesday 21 April 2021 (issued every 10 minutes, with the page automatically refreshed every 10 minutes)

About weather observations | Map of weather stations | Latest weather observations for VIC | Other Formats
Station Details ID: 084016 Name: GABO ISLAND LIGHTHOUSE Lat: -37.57 Lon: 149.92 Height: 15.0 m
Data from the previous 72 hours. | See also: Recent months at Gabo Island
Date/Time
EST
Temp
°C
App
Temp
°C
Dew
Point
°C
Rel
Hum
%
Delta-T
°C
Wind Press
QNH
hPa
Press
MSL
hPa
Rain since
9am
mm
Dir  Spd
km/h
Gust
km/h
Spd
kts
Gust
kts
21/12:00pm 14.2 7.6 10.0 76 2.2 WSW 35 44 19 24 1014.6 1014.6 0.0
21/11:30am 14.0 8.5 10.4 79 1.9 WSW 30 37 16 20 1014.6 1014.6 0.0
21/11:00am 13.4 7.4 10.2 81 1.7 WSW 32 37 17 20 1014.6 1014.6 0.0
21/10:30am 12.7 6.8 10.4 86 1.2 WSW 32 37 17 20 1014.7 1014.7 0.0
21/10:00am 12.8 6.8 10.7 87 1.1 W 33 43 18 23 1014.6 1014.6 0.0
21/09:30am 11.9 4.9 9.8 87 1.1 WSW 37 44 20 24 1014.5 1014.5 0.0
21/09:00am 11.7 4.2 9.6 87 1.1 W 39 46 21 25 1014.1 1014.1 9.2
21/08:30am 11.3 4.2 9.6 89 0.9 WSW 37 44 20 24 1014.0 1014.0 9.2
21/08:00am 11.1 3.7 9.7 91 0.7 WSW 39 46 21 25 1013.7 1013.7 9.2
21/07:37am 10.6 3.1 9.4 92 0.6 W 39 46 21 25 1013.6 1013.6 8.6
21/07:34am 10.8 3.7 9.6 92 0.6 W 37 46 20 25 1013.6 1013.6 8.4
21/07:30am 10.6 3.4 9.2 91 0.7 WSW 37 46 20 25 1013.4 1013.4 8.0
21/07:00am 10.5 2.8 8.6 88 0.9 W 39 46 21 25 1012.6 1012.6 6.2
21/06:30am 10.2 2.1 8.5 89 0.8 W 41 48 22 26 1012.3 1012.3 6.2
21/06:00am 10.1 1.3 8.0 87 1.0 W 44 56 24 30 1012.0 1012.0 5.8
21/05:30am 10.1 0.5 8.0 87 1.0 W 48 57 26 31 1011.8 1011.8 5.8
21/05:07am 10.6 1.4 7.8 83 1.4 W 46 65 25 35 1011.4 1011.4 5.8
21/05:00am 10.3 0.2 7.4 82 1.4 W 50 65 27 35 1011.2 1011.2 5.8
21/04:30am 10.7 1.1 8.1 84 1.3 W 48 61 26 33 1010.9 1010.9 5.8
21/04:00am 10.9 1.4 8.3 84 1.3 W 48 63 26 34 1010.7 1010.7 5.8
21/03:47am 11.1 1.6 8.5 84 1.3 W 48 67 26 36 1010.5 1010.5 5.8
21/03:30am 11.0 0.3 8.2 83 1.4 W 54 69 29 37 1010.3 1010.3 5.8
21/03:21am 11.5 2.4 8.5 82 1.5 WSW 46 65 25 35 1010.2 1010.2 5.8
21/03:00am 11.2 1.7 8.2 82 1.5 WSW 48 61 26 33 1010.1 1010.1 5.8
21/02:30am 11.2 1.4 8.8 85 1.2 WSW 50 69 27 37 1010.0 1010.0 5.6
21/02:00am 11.4 1.9 9.7 89 0.9 WSW 50 65 27 35 1009.9 1009.9 5.2
21/01:30am 11.9 2.8 9.8 87 1.1 WSW 48 59 26 32 1009.9 1009.9 4.4
21/01:00am 11.5 1.7 8.7 83 1.4 W 50 59 27 32 1009.5 1009.5 4.4
21/12:30am 11.6 3.0 9.0 84 1.3 W 44 61 24 33 1009.5 1009.5 4.4
21/12:00am 11.5 2.2 9.2 86 1.2 W 48 59 26 32 1009.2 1009.2 4.4
 
Date/Time
EST
Temp
°C
App
Temp
°C
Dew
Point
°C
Rel
Hum
%
Delta-T
°C
Wind Press
QNH
hPa
Press
MSL
hPa
Rain since
9am
mm
Dir  Spd
km/h
Gust
km/h
Spd
kts
Gust
kts
20/11:30pm 11.5 3.0 9.2 86 1.2 W 44 56 24 30 1009.5 1009.5 4.4
20/11:00pm 11.3 4.0 8.9 85 1.2 W 37 46 20 25 1010.1 1010.1 4.2
20/10:30pm 11.3 3.3 8.9 85 1.2 W 41 52 22 28 1010.4 1010.4 4.0
20/10:00pm 11.3 5.4 9.0 86 1.1 W 30 46 16 25 1010.4 1010.4 4.0
20/09:30pm 11.4 5.6 9.5 88 1.0 W 30 39 16 21 1010.7 1010.7 3.8
20/09:00pm 11.6 6.5 9.2 85 1.2 WNW 26 33 14 18 1010.8 1010.8 3.2
20/08:45pm 11.9 5.7 9.3 84 1.3 W 32 43 17 23 1010.7 1010.7 3.2
20/08:30pm 12.4 4.5 9.4 82 1.5 WSW 41 50 22 27 1010.6 1010.6 3.2
20/08:00pm 12.8 4.3 9.4 80 1.7 WSW 44 57 24 31 1010.8 1010.8 2.8
20/07:30pm 12.8 3.7 11.2 90 0.8 WSW 50 61 27 33 1010.2 1010.2 2.8
20/07:13pm 13.6 0.9 9.8 78 2.0 SW 67 83 36 45 1010.1 1010.1 0.0
20/07:08pm 14.2 0.9 9.2 72 2.5 SW 69 83 37 45 1009.3 1009.3 0.0
20/07:00pm 15.3 5.5 11.3 77 2.1 SW 54 76 29 41 1009.2 1009.2 0.0
20/06:30pm 16.1 8.5 11.9 76 2.3 SW 43 48 23 26 1008.8 1008.8 0.0
20/06:00pm 16.6 8.9 11.5 72 2.8 SW 43 50 23 27 1008.2 1008.2 0.0
20/05:30pm 17.1 10.6 14.0 82 1.8 SW 41 54 22 29 1007.9 1007.9 0.0
20/05:22pm 17.8 14.5 12.9 73 2.7 N 22 48 12 26 1007.8 1007.8 0.0
20/05:00pm 17.9 15.2 11.7 67 3.4 N 17 24 9 13 1006.9 1006.9 0.0
20/04:30pm 18.4 15.5 12.2 67 3.4 NNE 19 22 10 12 1007.0 1007.0 0.0
20/04:00pm 18.7 14.7 11.8 64 3.8 NNE 24 28 13 15 1007.2 1007.2 0.0
20/03:30pm 19.0 15.3 11.6 62 4.1 NNE 22 32 12 17 1007.3 1007.3 0.0
20/03:00pm 20.1 19.0 11.8 59 4.6 S 9 13 5 7 1007.5 1007.5 0.0
20/02:30pm 21.6 19.4 7.8 41 7.2 W 9 13 5 7 1007.6 1007.6 0.0
20/02:00pm 20.0 18.1 9.0 49 5.8 WSW 9 13 5 7 1007.8 1007.8 0.0
20/01:30pm 21.2 18.8 8.8 45 6.6 WSW 11 13 6 7 1008.0 1008.0 0.0
20/01:00pm 21.4 17.8 6.9 39 7.4 W 15 20 8 11 1008.5 1008.5 0.0
20/12:30pm 21.8 18.8 7.6 40 7.4 WNW 13 19 7 10 1009.2 1009.2 0.0
20/12:00pm 21.2 17.9 6.3 38 7.5 WNW 13 17 7 9 1009.7 1009.7 0.0
20/11:30am 21.2 18.1 7.1 40 7.2 NW 13 19 7 10 1010.3 1010.3 0.0
20/11:00am 20.6 16.8 7.6 43 6.7 NW 17 22 9 12 1010.6 1010.6 0.0
20/10:30am 19.7 16.0 8.1 47 6.0 NW 17 24 9 13 1011.1 1011.1 0.0
20/10:00am 18.4 14.7 7.8 50 5.4 NW 17 22 9 12 1011.4 1011.4 0.0
20/09:30am 18.0 14.8 8.3 53 5.0 NW 15 20 8 11 1011.7 1011.7 0.0
20/09:00am 17.3 13.4 7.1 51 5.1 NW 17 24 9 13 1012.1 1012.1 0.0
20/08:30am 16.6 12.2 6.7 52 4.9 NW 19 26 10 14 1012.2 1012.2 0.0
20/08:00am 15.8 11.9 7.1 56 4.3 NW 17 22 9 12 1012.2 1012.2 0.0
20/07:30am 15.2 11.7 7.0 58 4.0 WNW 15 20 8 11 1012.1 1012.1 0.0
20/07:00am 14.3 10.6 7.8 65 3.2 WNW 17 20 9 11 1012.0 1012.0 0.0
20/06:30am 13.8 10.7 7.3 65 3.2 NW 13 17 7 9 1011.8 1011.8 0.0
20/06:00am 14.1 11.0 7.4 64 3.3 NW 13 17 7 9 1011.9 1011.9 0.0
20/05:30am 14.3 11.3 7.6 64 3.3 NW 13 15 7 8 1011.9 1011.9 0.0
20/05:00am 14.2 10.9 7.9 66 3.1 NW 15 19 8 10 1012.0 1012.0 0.0
20/04:30am 14.5 11.6 8.2 66 3.2 NW 13 17 7 9 1012.1 1012.1 0.0
20/04:00am 14.4 11.1 8.1 66 3.1 NW 15 20 8 11 1012.1 1012.1 0.0
20/03:30am 15.0 12.2 10.0 72 2.6 NW 15 20 8 11 1012.2 1012.2 0.0
20/03:00am 14.6 13.4 11.7 83 1.6 WNW 9 13 5 7 1012.4 1012.4 0.0
20/02:30am 14.9 14.2 12.0 83 1.6 WNW 7 9 4 5 1012.9 1012.9 0.0
20/02:00am 15.2 14.1 11.8 80 1.8 NNW 9 13 5 7 1013.1 1013.1 0.0
20/01:30am 15.3 13.3 11.5 78 2.0 NW 13 15 7 8 1013.5 1013.5 0.0
20/01:00am 15.5 13.5 11.5 77 2.2 NW 13 15 7 8 1014.0 1014.0 0.0
20/12:30am 15.1 13.2 11.7 80 1.8 WNW 13 15 7 8 1013.8 1013.8 0.0
20/12:00am 15.3 13.2 11.3 77 2.1 WNW 13 15 7 8 1014.0 1014.0 0.0
 
Date/Time
EST
Temp
°C
App
Temp
°C
Dew
Point
°C
Rel
Hum
%
Delta-T
°C
Wind Press
QNH
hPa
Press
MSL
hPa
Rain since
9am
mm
Dir  Spd
km/h
Gust
km/h
Spd
kts
Gust
kts
19/11:30pm 15.1 13.0 11.3 78 2.0 WNW 13 13 7 7 1014.3 1014.3 0.0
19/11:00pm 15.2 13.7 10.6 74 2.4 NW 9 13 5 7 1014.4 1014.4 0.0
19/10:30pm 15.1 13.2 11.9 81 1.7 WNW 13 13 7 7 1014.8 1014.8 0.0
19/10:00pm 15.5 14.9 12.3 81 1.7 W 7 9 4 5 1015.0 1015.0 0.0
19/09:30pm 15.2 15.4 11.8 80 1.8 SW 2 7 1 4 1015.2 1015.2 0.0
19/09:00pm 15.4 15.8 11.2 76 2.2 CALM 0 0 0 0 1015.2 1015.2 0.0
19/08:30pm 15.0 14.3 11.4 79 1.9 WSW 6 7 3 4 1015.2 1015.2 0.0
19/08:00pm 14.4 13.0 11.0 80 1.8 N 9 11 5 6 1015.2 1015.2 0.0
19/07:30pm 14.8 13.5 11.4 80 1.8 N 9 11 5 6 1015.4 1015.4 0.0
19/07:00pm 14.8 14.1 11.9 83 1.6 N 7 9 4 5 1015.4 1015.4 0.0
19/06:30pm 14.9 13.6 11.1 78 2.0 N 9 9 5 5 1015.3 1015.3 0.0
19/06:00pm 15.8 16.1 10.8 72 2.7 CALM 0 0 0 0 1015.1 1015.1 0.0
19/05:30pm 15.8 15.3 10.6 71 2.8 E 4 6 2 3 1014.9 1014.9 0.0
19/05:00pm 16.6 15.8 11.1 70 3.0 E 6 7 3 4 1014.7 1014.7 0.0
19/04:30pm 16.9 16.1 11.2 69 3.1 ESE 6 7 3 4 1014.8 1014.8 0.0
19/04:00pm 17.1 16.0 12.0 72 2.8 S 9 13 5 7 1014.7 1014.7 0.0
19/03:30pm 17.1 15.5 11.6 70 3.0 S 11 13 6 7 1014.8 1014.8 0.0
19/03:00pm 17.4 15.1 11.7 69 3.1 S 15 19 8 10 1015.0 1015.0 0.0
19/02:30pm 17.8 15.1 11.6 67 3.4 S 17 19 9 10 1015.1 1015.1 0.0
19/02:00pm 18.1 16.2 11.7 66 3.5 S 13 17 7 9 1015.3 1015.3 0.0
19/01:30pm 18.3 16.1 10.9 62 4.0 SSW 13 15 7 8 1015.4 1015.4 0.0
19/01:00pm 18.2 16.4 9.5 57 4.6 SSE 9 13 5 7 1015.7 1015.7 0.0
19/12:30pm 18.2 16.8 9.5 57 4.6 ENE 7 9 4 5 1016.0 1016.0 0.0
19/12:00pm 18.1 16.9 10.2 60 4.2 SSE 7 9 4 5 1016.5 1016.5 0.0
19/11:30am 18.2 16.9 10.1 59 4.3 SSE 7 11 4 6 1016.8 1016.8 0.0
19/11:00am 18.9 18.2 11.5 62 4.1 ENE 6 7 3 4 1017.1 1017.1 0.0
19/10:30am 18.1 17.2 10.7 62 4.0 E 6 9 3 5 1017.3 1017.3 0.0
19/10:00am 18.1 17.2 10.7 62 4.0 NE 6 7 3 4 1017.5 1017.5 0.0
19/09:30am 16.9 15.1 11.0 68 3.2 WNW 11 13 6 7 1017.7 1017.7 0.0
19/09:00am 15.7 13.5 10.9 73 2.6 WNW 13 15 7 8 1017.9 1017.9 0.0
19/08:30am 15.0 13.3 11.2 78 2.0 WNW 11 13 6 7 1017.9 1017.9 0.0
19/08:00am 15.6 14.3 11.4 76 2.3 NW 9 11 5 6 1017.8 1017.8 0.0
19/07:30am 13.9 12.2 11.1 83 1.5 WNW 11 13 6 7 1017.6 1017.6 0.0
19/07:00am 13.2 11.2 10.2 82 1.5 NW 11 13 6 7 1017.6 1017.6 0.0
19/06:30am 12.7 10.1 9.5 81 1.6 NNW 13 17 7 9 1017.5 1017.5 0.0
19/06:00am 13.0 10.4 9.4 79 1.8 NW 13 15 7 8 1017.5 1017.5 0.0
19/05:30am 12.8 10.3 9.8 82 1.5 NW 13 15 7 8 1017.3 1017.3 0.0
19/05:00am 13.1 10.6 9.7 80 1.7 NW 13 15 7 8 1017.4 1017.4 0.0
19/04:30am 12.5 9.9 9.5 82 1.5 NW 13 15 7 8 1017.2 1017.2 0.0
19/04:00am 12.7 10.4 9.0 78 1.9 NW 11 13 6 7 1017.4 1017.4 0.0
19/03:30am 13.4 10.7 8.9 74 2.3 NW 13 17 7 9 1017.4 1017.4 0.0
19/03:00am 13.4 10.8 9.3 76 2.1 NW 13 17 7 9 1017.5 1017.5 0.0
19/02:30am 13.6 11.3 9.1 74 2.3 NW 11 17 6 9 1017.7 1017.7 0.0
19/02:00am 13.3 10.6 8.8 74 2.3 NW 13 17 7 9 1018.0 1018.0 0.0
19/01:30am 13.4 11.1 8.9 74 2.3 NNW 11 15 6 8 1018.4 1018.4 0.0
19/01:00am 13.7 10.6 9.0 73 2.4 NW 15 19 8 10 1018.6 1018.6 0.0
19/12:30am 13.6 11.0 9.3 75 2.2 NW 13 15 7 8 1018.9 1018.9 0.0
19/12:00am 13.9 10.9 9.1 73 2.4 NW 15 19 8 10 1019.1 1019.1 0.0
 
Date/Time
EST
Temp
°C
App
Temp
°C
Dew
Point
°C
Rel
Hum
%
Delta-T
°C
Wind Press
QNH
hPa
Press
MSL
hPa
Rain since
9am
mm
Dir  Spd
km/h
Gust
km/h
Spd
kts
Gust
kts
18/11:30pm 13.2 10.6 9.3 77 2.0 NW 13 17 7 9 1019.2 1019.2 0.0
18/11:00pm 13.5 11.3 9.2 75 2.2 NW 11 15 6 8 1019.4 1019.4 0.0
18/10:30pm 13.5 11.3 9.2 75 2.2 NW 11 15 6 8 1019.6 1019.6 0.0
18/10:00pm 13.9 11.7 9.3 74 2.3 NW 11 15 6 8 1019.7 1019.7 0.0
18/09:30pm 13.7 11.1 9.2 74 2.3 NW 13 15 7 8 1019.6 1019.6 0.0
18/09:00pm 14.6 12.0 9.4 71 2.7 NW 13 15 7 8 1019.6 1019.6 0.0
18/08:30pm 14.6 12.1 9.6 72 2.6 WNW 13 17 7 9 1019.6 1019.6 0.0
18/08:00pm 15.5 12.5 10.5 72 2.6 WSW 17 20 9 11 1019.5 1019.5 0.0
18/07:30pm 16.3 13.0 11.0 71 2.8 SW 19 22 10 12 1019.5 1019.5 0.0
18/07:00pm 16.4 13.5 11.1 71 2.8 SW 17 20 9 11 1019.4 1019.4 0.0
18/06:30pm 16.6 13.6 12.0 74 2.5 SW 19 20 10 11 1019.3 1019.3 0.0
18/06:00pm 16.7 13.0 11.6 72 2.8 SW 22 26 12 14 1018.9 1018.9 0.0
18/05:30pm 16.7 11.8 11.2 70 3.0 SW 28 32 15 17 1018.9 1018.9 0.0
18/05:00pm 17.2 12.3 10.1 63 3.7 SW 26 30 14 16 1018.8 1018.8 0.0
18/04:30pm 17.3 12.0 11.1 67 3.3 SW 30 35 16 19 1018.9 1018.9 0.0
18/04:00pm 17.5 12.4 11.8 69 3.1 SW 30 33 16 18 1019.1 1019.1 0.0
18/03:30pm 17.9 13.5 9.0 56 4.6 WSW 22 30 12 16 1019.1 1019.1 0.0
18/03:00pm 18.1 14.1 8.9 55 4.8 WSW 20 26 11 14 1019.1 1019.1 0.0
18/02:30pm 17.8 14.2 9.7 59 4.3 SW 19 22 10 12 1019.2 1019.2 0.0
18/02:00pm 17.5 13.0 8.6 56 4.6 W 22 26 12 14 1019.3 1019.3 0.0
18/01:30pm 17.0 12.0 8.2 56 4.5 W 24 30 13 16 1019.5 1019.5 0.0
18/01:00pm 17.4 13.0 10.3 63 3.8 SW 24 28 13 15 1019.9 1019.9 0.0
18/12:30pm 18.2 14.2 9.0 55 4.8 WSW 20 28 11 15 1020.2 1020.2 0.0

Other formats

Comma delimited format used in spreadsheet applications
http://www.bom.gov.au/fwo/IDV60801/IDV60801.94933.axf

JavaScript Object Notation format (JSON) in row-major order
http://www.bom.gov.au/fwo/IDV60801/IDV60801.94933.json

Data quality

Most of these data are generated automatically and are frequently updated. Quality checks on data are not normally performed. It is possible for incorrect values to appear. Refer to information at About Latest Weather Observations and please check the disclaimer before using these data.